Polfoss — V2PN7 — position and weather

sailwx.info

Track history (hours):
 
Tides and Currents Weather Stations Pressure Air Temp Water Temp Dewpoint Dewpoint Depression Visibility Wind Speed Wind Dir Waves Ship Positions

Polfoss

Last reported at 2016-Jul-30 05:29 UTC. Time now 2016-Jul-30 16:56 UTC.
Position N 58°23' E 005°16'.

Length 82 m; draft 6.1 m.

Type: Cargo ship. MMSI: 305081000.

Date/timePositionNaut miles runAvg speedWind from/ knotsBaromVisibWave heightAir tempDewpointWater temp
2016-Jul-30 05:29N 58°23' E 005°16'1213.3
2016-Jul-30 04:33N 58°35' E 005°20'1413.6
2016-Jul-30 03:34N 58°49' E 005°25'1413.8
2016-Jul-30 02:34N 59°02' E 005°33'9 9.0
2016-Jul-30 01:34N 58°56' E 005°47'5 4.8
2016-Jul-30 00:33N 58°51' E 005°45'1010.4
2016-Jul-29 23:33N 59°02' E 005°47'1312.7
2016-Jul-29 22:33N 59°07' E 005°25'5 4.7
2016-Jul-29 21:34N 59°09' E 005°16'7 7.4
2016-Jul-29 20:33N 59°16' E 005°20'1612.6
2016-Jul-29 19:16N 59°32' E 005°12'1013.5
2016-Jul-29 18:33N 59°40' E 005°22'1313.1
2016-Jul-29 17:33N 59°52' E 005°32'  
2016-Jul-27 01:33N 63°30' E 009°06'1212.1
2016-Jul-27 00:33N 63°42' E 009°16'17014.1
2016-Jul-26 12:29N 66°20' E 011°39'1313.9
2016-Jul-26 11:33N 66°32' E 011°52'  
2016-Jul-22 12:28N 70°05' E 030°39'1415.0
2016-Jul-22 11:33N 69°55' E 030°13'1111.4
2016-Jul-22 10:33N 69°44' E 030°04'0 0.0
2016-Jul-22 09:33N 69°44' E 030°04'0 0.0
2016-Jul-22 08:34N 69°44' E 030°04'0 0.0
2016-Jul-22 07:34N 69°44' E 030°04'0 0.0
2016-Jul-22 05:33N 69°44' E 030°04'0 0.0
2016-Jul-22 04:34N 69°44' E 030°04'1 1.2
2016-Jul-22 03:34N 69°45' E 030°05'1413.6
2016-Jul-22 02:33N 69°58' E 030°20'1614.1
2016-Jul-22 01:25N 70°10' E 030°50'272 7.2
2016-Jul-20 11:33N 69°18' E 017°58'5 4.6
2016-Jul-20 10:33N 69°14' E 017°58'1 1.1
2016-Jul-20 09:34N 69°13' E 017°59'1 1.1
2016-Jul-20 08:33N 69°14' E 017°58'0 0.0
2016-Jul-20 07:33N 69°14' E 017°58'0 0.0
2016-Jul-20 06:33N 69°14' E 017°58'0 0.0
2016-Jul-20 05:33N 69°14' E 017°58'  
Track history (hours):
 
Tides and Currents Weather Stations Pressure Air Temp Water Temp Dewpoint Dewpoint Depression Visibility Wind Speed Wind Dir Waves Ship Positions

Polfoss

Last reported at 2016-Jul-30 05:29 UTC. Time now 2016-Jul-30 16:56 UTC.
Position N 58°23' E 005°16'.

Length 82 m; draft 6.1 m.

Type: Cargo ship. MMSI: 305081000.

Date/timePositionNaut miles runAvg speedWind from/ knotsBaromVisibWave heightAir tempDewpointWater temp
2016-Jul-30 05:29N 58°23' E 005°16'1213.3
2016-Jul-30 04:33N 58°35' E 005°20'1413.6
2016-Jul-30 03:34N 58°49' E 005°25'1413.8
2016-Jul-30 02:34N 59°02' E 005°33'9 9.0
2016-Jul-30 01:34N 58°56' E 005°47'5 4.8
2016-Jul-30 00:33N 58°51' E 005°45'1010.4
2016-Jul-29 23:33N 59°02' E 005°47'1312.7
2016-Jul-29 22:33N 59°07' E 005°25'5 4.7
2016-Jul-29 21:34N 59°09' E 005°16'7 7.4
2016-Jul-29 20:33N 59°16' E 005°20'1612.6
2016-Jul-29 19:16N 59°32' E 005°12'1013.5
2016-Jul-29 18:33N 59°40' E 005°22'1313.1
2016-Jul-29 17:33N 59°52' E 005°32'  
2016-Jul-27 01:33N 63°30' E 009°06'1212.1
2016-Jul-27 00:33N 63°42' E 009°16'17014.1
2016-Jul-26 12:29N 66°20' E 011°39'1313.9
2016-Jul-26 11:33N 66°32' E 011°52'  
2016-Jul-22 12:28N 70°05' E 030°39'1415.0
2016-Jul-22 11:33N 69°55' E 030°13'1111.4
2016-Jul-22 10:33N 69°44' E 030°04'0 0.0
2016-Jul-22 09:33N 69°44' E 030°04'0 0.0
2016-Jul-22 08:34N 69°44' E 030°04'0 0.0
2016-Jul-22 07:34N 69°44' E 030°04'0 0.0
2016-Jul-22 05:33N 69°44' E 030°04'0 0.0
2016-Jul-22 04:34N 69°44' E 030°04'1 1.2
2016-Jul-22 03:34N 69°45' E 030°05'1413.6
2016-Jul-22 02:33N 69°58' E 030°20'1614.1
2016-Jul-22 01:25N 70°10' E 030°50'272 7.2
2016-Jul-20 11:33N 69°18' E 017°58'5 4.6
2016-Jul-20 10:33N 69°14' E 017°58'1 1.1
2016-Jul-20 09:34N 69°13' E 017°59'1 1.1
2016-Jul-20 08:33N 69°14' E 017°58'0 0.0
2016-Jul-20 07:33N 69°14' E 017°58'0 0.0
2016-Jul-20 06:33N 69°14' E 017°58'0 0.0
2016-Jul-20 05:33N 69°14' E 017°58'  

Dump ship's entire track history